createdAt,value
2023-03-29T00:04:05.644Z,18.92
2023-03-29T00:14:07.635Z,25.85
2023-03-29T00:24:09.570Z,38.10
2023-03-29T00:34:11.600Z,26.27
2023-03-29T00:44:51.144Z,37.83
2023-03-29T00:54:55.557Z,21.20
2023-03-29T01:05:11.192Z,22.77
2023-03-29T01:15:19.159Z,21.23
2023-03-29T01:25:49.392Z,32.00
2023-03-29T01:36:09.745Z,28.63
2023-03-29T01:46:18.947Z,33.13
2023-03-29T01:56:25.174Z,23.70
2023-03-29T02:06:30.033Z,35.70
2023-03-29T02:16:39.237Z,33.35
2023-03-29T02:26:41.166Z,29.13
2023-03-29T02:36:49.858Z,33.00
2023-03-29T02:46:57.065Z,33.25
2023-03-29T02:57:01.224Z,36.00
2023-03-29T03:07:03.410Z,26.38
2023-03-29T03:17:05.418Z,37.42
2023-03-29T03:27:08.319Z,33.72
2023-03-29T03:37:10.292Z,30.50
2023-03-29T03:47:12.691Z,30.20
2023-03-29T03:57:16.567Z,38.20
2023-03-29T04:07:24.297Z,54.23
2023-03-29T04:17:36.300Z,34.33
2023-03-29T04:28:05.183Z,49.90
2023-03-29T04:38:30.047Z,65.28
2023-03-29T04:48:32.024Z,44.65
2023-03-29T04:58:34.144Z,40.17
2023-03-29T05:08:37.453Z,38.70
2023-03-29T05:18:45.577Z,37.08
2023-03-29T05:28:48.223Z,29.08
2023-03-29T05:38:50.205Z,38.55
2023-03-29T05:48:54.601Z,29.50
2023-03-29T05:59:09.005Z,26.08
2023-03-29T06:09:11.110Z,28.33
2023-03-29T06:19:27.002Z,23.05
2023-03-29T06:29:29.527Z,17.67
2023-03-29T06:39:31.835Z,13.77
2023-03-29T06:49:55.132Z,17.55
2023-03-29T07:00:05.521Z,13.67
2023-03-29T07:10:30.332Z,11.93
2023-03-29T07:20:50.713Z,10.45
2023-03-29T07:30:52.770Z,13.20
2023-03-29T07:40:57.239Z,8.20
2023-03-29T07:51:17.796Z,7.80
2023-03-29T08:01:22.641Z,6.00
2023-03-29T08:11:45.805Z,5.78
2023-03-29T08:22:02.386Z,4.47
2023-03-29T08:32:15.465Z,5.70
2023-03-29T08:42:38.408Z,4.05
2023-03-29T08:52:58.163Z,3.72
2023-03-29T09:03:49.527Z,2.97
2023-03-29T09:14:24.447Z,2.47
2023-03-29T09:24:38.753Z,3.17
2023-03-29T09:34:59.027Z,4.57
2023-03-29T09:45:04.826Z,3.00
2023-03-29T09:55:15.165Z,3.40
2023-03-29T10:05:45.764Z,2.58
2023-03-29T10:16:21.622Z,2.58
2023-03-29T10:26:26.510Z,1.98
2023-03-29T10:36:28.974Z,2.63
2023-03-29T10:46:42.216Z,2.30
2023-03-29T10:56:52.606Z,2.83
2023-03-29T11:07:00.924Z,2.72
2023-03-29T11:17:15.782Z,2.58
2023-03-29T11:27:32.896Z,2.38
2023-03-29T11:38:00.820Z,1.20
2023-03-29T11:48:06.748Z,2.22
2023-03-29T11:58:26.371Z,2.10
2023-03-29T12:08:52.223Z,2.20
2023-03-29T12:19:02.682Z,2.47
2023-03-29T12:29:10.576Z,2.10
2023-03-29T12:39:19.073Z,1.98
2023-03-29T12:49:39.961Z,2.88
2023-03-29T12:59:47.842Z,3.33
2023-03-29T13:09:50.920Z,2.75
2023-03-29T13:20:11.540Z,2.40
2023-03-29T13:30:40.096Z,2.97
2023-03-29T13:41:43.181Z,2.40
2023-03-29T13:51:53.724Z,3.25
2023-03-29T14:01:58.794Z,2.50
2023-03-29T14:12:01.774Z,2.00
2023-03-29T14:22:14.550Z,3.83
2023-03-29T14:32:27.675Z,5.22
2023-03-29T14:42:29.798Z,3.83
2023-03-29T14:52:33.066Z,3.22
2023-03-29T15:02:34.999Z,2.97
2023-03-29T15:12:37.941Z,2.40
2023-03-29T15:22:51.744Z,3.72
2023-03-29T15:32:55.167Z,3.10
2023-03-29T15:42:57.266Z,2.95
2023-03-29T15:53:08.636Z,2.42
2023-03-29T16:03:17.295Z,2.88
2023-03-29T16:13:19.143Z,3.30
2023-03-29T16:23:21.041Z,4.68
2023-03-29T16:33:23.011Z,5.10
2023-03-29T16:43:25.010Z,4.18
2023-03-29T16:53:26.885Z,5.18
2023-03-29T17:03:29.163Z,6.10
2023-03-29T17:13:31.038Z,4.60
2023-03-29T17:23:33.020Z,4.60
2023-03-29T17:33:36.051Z,7.88
2023-03-29T17:43:37.972Z,5.57
2023-03-29T17:53:39.870Z,7.00
2023-03-29T18:03:42.103Z,6.65
2023-03-29T18:13:43.998Z,8.50
2023-03-29T18:23:47.241Z,6.57
2023-03-29T18:33:49.057Z,5.50
2023-03-29T18:43:52.087Z,6.60
2023-03-29T18:53:55.301Z,9.30
2023-03-29T19:03:57.196Z,9.20
2023-03-29T19:13:59.092Z,8.65
2023-03-29T19:24:00.871Z,10.05
2023-03-29T19:34:02.797Z,10.68
2023-03-29T19:44:04.700Z,7.95
2023-03-29T19:54:06.643Z,5.60
2023-03-29T20:04:09.082Z,5.47
2023-03-29T20:14:11.468Z,8.10
2023-03-29T20:24:13.296Z,4.80
2023-03-29T20:34:15.187Z,6.03
2023-03-29T20:44:17.637Z,6.00
2023-03-29T20:54:19.465Z,5.70
2023-03-29T21:04:21.337Z,4.32
2023-03-29T21:14:23.070Z,4.07
2023-03-29T21:24:25.293Z,4.07
2023-03-29T21:34:27.202Z,3.95
2023-03-29T21:44:29.020Z,4.10
2023-03-29T21:54:30.879Z,2.63
2023-03-29T22:04:36.907Z,4.47
2023-03-29T22:14:39.169Z,2.97
2023-03-29T22:24:41.910Z,2.85
2023-03-29T22:34:43.894Z,3.03
2023-03-29T22:44:45.933Z,4.15
2023-03-29T22:54:47.798Z,3.10
2023-03-29T23:04:49.771Z,3.17
2023-03-29T23:14:51.620Z,4.53
2023-03-29T23:24:53.415Z,3.58
2023-03-29T23:34:55.380Z,2.53
2023-03-29T23:44:57.247Z,2.72
2023-03-29T23:54:59.943Z,2.47
